Time;durP1;ratioP1;P1;durP2;ratioP2;P2;SDS_P1;SDS_P2;PMS_P1;PMS_P2;Temp;Humidity;BMP_temperature;BMP_pressure;BME280_temperature;BME280_humidity;BME280_pressure;Samples;Min_cycle;Max_cycle;Signal;HPM_P1;HPM_P2
2022/03/14 00:01:06;;;;;;;5.03;4.53;;;;;;;19.26;36.95;102367.94;5052429;28;20173;-87
2022/03/14 00:03:42;;;;;;;4.93;4.43;;;;;;;19.25;36.72;102361.69;5052736;28;20061;-85
2022/03/14 00:06:11;;;;;;;5.45;4.60;;;;;;;19.25;36.78;102350.97;5055407;28;20045;-84
2022/03/14 00:08:45;;;;;;;5.65;4.78;;;;;;;19.27;36.85;102364.28;5052920;28;20045;-84
2022/03/14 00:11:15;;;;;;;5.32;4.10;;;;;;;19.26;36.61;102360.75;5054104;28;20463;-84
2022/03/14 00:13:46;;;;;;;5.80;4.30;;;;;;;19.25;36.53;102359.03;5043149;28;20049;-84
2022/03/14 00:16:39;;;;;;;5.38;4.20;;;;;;;19.26;36.50;102354.50;5033226;28;20393;-84
2022/03/14 00:19:05;;;;;;;4.53;3.88;;;;;;;19.25;36.52;102361.69;5033771;28;20109;-85
2022/03/14 00:21:35;;;;;;;6.57;5.28;;;;;;;19.26;36.45;102376.00;5033685;28;20054;-84
2022/03/14 00:24:03;;;;;;;7.03;5.03;;;;;;;19.26;36.26;102384.91;5034151;28;20041;-85
2022/03/14 00:26:30;;;;;;;5.00;4.50;;;;;;;19.26;36.38;102390.28;5034017;28;20049;-85
2022/03/14 00:28:59;;;;;;;5.50;4.53;;;;;;;19.27;36.49;102383.06;5033673;28;20042;-84
2022/03/14 00:31:27;;;;;;;5.00;4.50;;;;;;;19.27;36.18;102392.00;5053578;28;20049;-86
2022/03/14 00:33:54;;;;;;;5.20;4.38;;;;;;;19.27;36.38;102400.06;5052337;28;20637;-86
2022/03/14 00:36:22;;;;;;;5.40;4.50;;;;;;;19.29;36.35;102393.75;5053675;28;20049;-85
2022/03/14 00:38:52;;;;;;;5.68;4.75;;;;;;;19.27;36.30;102393.81;5053491;28;20045;-86
2022/03/14 00:41:21;;;;;;;4.68;4.15;;;;;;;19.27;36.25;102402.72;5052980;28;20057;-85
2022/03/14 00:43:48;;;;;;;6.47;4.57;;;;;;;19.29;36.23;102401.81;5052133;28;20053;-85
2022/03/14 00:46:19;;;;;;;5.22;4.72;;;;;;;19.29;36.13;102401.81;5053131;28;20485;-85
2022/03/14 00:48:47;;;;;;;5.93;4.63;;;;;;;19.30;36.33;102409.75;5052830;28;20049;-85
2022/03/14 00:51:15;;;;;;;5.28;4.35;;;;;;;19.28;35.96;102408.97;5053068;28;20396;-86
2022/03/14 00:53:42;;;;;;;5.07;4.30;;;;;;;19.29;36.20;102415.22;5053202;28;20041;-86
2022/03/14 00:56:10;;;;;;;5.38;4.72;;;;;;;19.29;36.17;102421.47;5052329;28;20056;-86
2022/03/14 00:58:37;;;;;;;6.75;5.15;;;;;;;19.31;35.94;102418.66;5053402;28;20061;-85
2022/03/14 01:01:08;;;;;;;5.40;4.10;;;;;;;19.30;36.16;102427.69;5053920;28;20048;-86
2022/03/14 01:03:35;;;;;;;6.00;5.30;;;;;;;19.31;36.21;102426.72;5057225;28;20053;-85
2022/03/14 01:06:04;;;;;;;5.03;4.43;;;;;;;19.32;35.95;102431.97;5056034;28;20045;-85
2022/03/14 01:08:32;;;;;;;4.65;4.10;;;;;;;19.31;36.07;102426.72;5057234;28;20044;-85
2022/03/14 01:10:59;;;;;;;7.88;5.18;;;;;;;19.32;36.00;102433.81;5057055;28;20049;-85
2022/03/14 01:13:27;;;;;;;5.15;4.65;;;;;;;19.32;36.09;102431.13;5047056;28;20049;-86
2022/03/14 01:15:56;;;;;;;5.15;4.65;;;;;;;19.32;36.16;102421.25;5038420;28;20057;-86
2022/03/14 01:18:23;;;;;;;4.97;4.45;;;;;;;19.32;35.93;102423.06;5035419;28;20505;-86
2022/03/14 01:20:51;;;;;;;5.45;4.65;;;;;;;19.32;36.09;102412.31;5035688;28;20401;-86
2022/03/14 01:23:19;;;;;;;5.68;5.03;;;;;;;19.31;36.00;102405.25;5037349;28;20050;-86
2022/03/14 01:25:46;;;;;;;5.88;4.80;;;;;;;19.32;35.87;102412.31;5037107;28;20049;-86
2022/03/14 01:28:14;;;;;;;4.97;4.55;;;;;;;19.32;36.01;102418.56;5019492;28;20049;-86
2022/03/14 01:30:43;;;;;;;5.72;5.10;;;;;;;19.32;36.16;102415.00;5035776;28;20045;-86
2022/03/14 01:33:11;;;;;;;5.45;4.70;;;;;;;19.32;35.92;102406.97;5036452;28;20116;-86
2022/03/14 01:35:40;;;;;;;6.05;5.45;;;;;;;19.32;35.83;102412.31;5036539;28;20485;-87
2022/03/14 01:38:09;;;;;;;5.53;4.50;;;;;;;19.32;35.96;102409.66;5034485;28;20049;-86
2022/03/14 01:40:37;;;;;;;5.05;4.55;;;;;;;19.32;35.94;102406.97;5035351;28;20044;-86
2022/03/14 01:43:04;;;;;;;5.63;4.95;;;;;;;19.31;35.92;102410.63;5035905;28;20406;-86
2022/03/14 01:45:31;;;;;;;5.82;5.22;;;;;;;19.32;35.95;102415.00;5036592;28;20042;-86
2022/03/14 01:47:59;;;;;;;4.75;4.25;;;;;;;19.32;36.04;102401.59;5035293;28;20041;-86
2022/03/14 01:50:26;;;;;;;6.43;5.13;;;;;;;19.32;35.96;102407.81;5036605;28;20048;-86
2022/03/14 01:52:53;;;;;;;5.88;5.07;;;;;;;19.32;35.96;102397.06;5035231;28;20041;-86
2022/03/14 01:55:21;;;;;;;4.85;4.35;;;;;;;19.33;35.77;102403.34;5036468;28;20056;-85
2022/03/14 01:57:49;;;;;;;5.97;4.93;;;;;;;19.33;35.83;102400.66;5036415;28;20052;-85
2022/03/14 02:00:16;;;;;;;6.15;4.78;;;;;;;19.32;35.94;102402.44;5035987;28;20504;-85
2022/03/14 02:02:44;;;;;;;6.32;5.28;;;;;;;19.33;35.86;102408.72;5035902;28;20402;-85
2022/03/14 02:05:12;;;;;;;5.53;4.95;;;;;;;19.33;35.96;102414.94;5035763;28;20046;-84
2022/03/14 02:07:39;;;;;;;5.18;4.63;;;;;;;19.33;35.87;102411.41;5035693;28;20508;-85
2022/03/14 02:10:08;;;;;;;5.85;5.10;;;;;;;19.34;36.04;102426.53;5034597;28;20057;-85
2022/03/14 02:12:36;;;;;;;6.03;4.82;;;;;;;19.33;36.05;102428.38;5032752;28;20054;-85
2022/03/14 02:15:04;;;;;;;5.43;4.55;;;;;;;19.35;35.99;102433.63;5048076;28;20048;-85
2022/03/14 02:17:31;;;;;;;5.05;4.55;;;;;;;19.35;36.04;102431.81;5055740;28;20049;-85
2022/03/14 02:19:59;;;;;;;5.22;4.72;;;;;;;19.35;36.04;102430.94;5055042;28;20049;-86
2022/03/14 02:22:26;;;;;;;6.38;4.53;;;;;;;19.35;36.03;102434.50;5053311;28;20056;-84
2022/03/14 02:24:54;;;;;;;6.07;4.97;;;;;;;19.35;35.99;102436.31;5055280;28;20048;-83
2022/03/14 02:27:22;;;;;;;4.75;4.13;;;;;;;19.35;35.87;102439.88;5055387;28;20044;-84
2022/03/14 02:29:49;;;;;;;5.50;5.00;;;;;;;19.36;35.96;102440.72;5055344;28;20049;-83
2022/03/14 02:32:18;;;;;;;5.53;4.93;;;;;;;19.35;35.94;102436.31;5055383;28;20049;-83
2022/03/14 02:34:45;;;;;;;5.45;4.95;;;;;;;19.35;35.99;102447.06;5054574;28;20045;-83
2022/03/14 02:37:12;;;;;;;6.18;5.30;;;;;;;19.35;35.99;102449.75;5055902;28;20412;-83
2022/03/14 02:39:42;;;;;;;6.78;5.07;;;;;;;19.36;36.17;102451.47;5053406;28;20056;-84
2022/03/14 02:42:10;;;;;;;5.13;4.63;;;;;;;19.35;35.99;102452.44;5055281;28;20049;-84
2022/03/14 02:44:42;;;;;;;5.43;4.93;;;;;;;19.34;36.03;102456.09;5055206;28;20060;-85
2022/03/14 02:47:10;;;;;;;5.80;4.80;;;;;;;19.35;36.15;102460.50;5054025;28;20056;-84
2022/03/14 02:49:38;;;;;;;5.43;4.93;;;;;;;19.35;36.27;102463.16;5055064;28;20045;-84
2022/03/14 02:52:06;;;;;;;5.03;4.53;;;;;;;19.34;36.23;102470.38;5055592;28;20041;-85
2022/03/14 02:54:33;;;;;;;5.85;4.90;;;;;;;19.34;36.25;102465.00;5055789;28;20048;-85
2022/03/14 02:57:01;;;;;;;5.93;5.10;;;;;;;19.34;36.36;102466.81;5055635;28;20041;-85
2022/03/14 02:59:28;;;;;;;5.10;4.53;;;;;;;19.34;36.13;102458.75;5055027;28;20052;-85
2022/03/14 03:01:56;;;;;;;5.13;4.38;;;;;;;19.35;36.26;102463.16;5054713;28;20397;-85
2022/03/14 03:04:23;;;;;;;5.35;4.55;;;;;;;19.34;36.16;102473.06;5055573;28;20453;-85
2022/03/14 03:06:53;;;;;;;5.63;4.95;;;;;;;19.34;36.21;102464.13;5056465;28;20480;-85
2022/03/14 03:09:20;;;;;;;5.88;5.28;;;;;;;19.35;36.17;102465.84;5055655;28;20048;-85
2022/03/14 03:11:48;;;;;;;6.15;5.07;;;;;;;19.35;36.15;102479.28;5054192;28;20041;-85
2022/03/14 03:14:15;;;;;;;5.90;4.97;;;;;;;19.35;36.18;102488.22;5053785;28;20045;-85
2022/03/14 03:16:43;;;;;;;5.97;4.50;;;;;;;19.34;36.19;102481.13;5037461;28;20052;-85
2022/03/14 03:19:12;;;;;;;4.55;4.15;;;;;;;19.35;36.26;102490.03;5033617;28;20042;-85
2022/03/14 03:21:40;;;;;;;5.57;4.72;;;;;;;19.35;36.07;102493.56;5033860;28;20041;-85
2022/03/14 03:24:08;;;;;;;7.07;5.20;;;;;;;19.35;36.13;102495.41;5034175;28;20056;-84
2022/03/14 03:26:38;;;;;;;5.18;4.68;;;;;;;19.36;36.14;102502.50;5033347;28;20041;-84
2022/03/14 03:29:07;;;;;;;4.85;4.40;;;;;;;19.36;36.06;102497.13;5034394;28;20045;-84
2022/03/14 03:31:34;;;;;;;5.75;5.15;;;;;;;19.37;36.23;102506.94;5034132;28;20374;-83
2022/03/14 03:34:04;;;;;;;5.85;5.22;;;;;;;19.37;36.21;102501.56;5034352;28;20061;-86
2022/03/14 03:36:32;;;;;;;5.97;4.43;;;;;;;19.37;35.98;102506.94;5033495;28;20049;-86
2022/03/14 03:39:00;;;;;;;5.40;4.90;;;;;;;19.36;36.12;102505.19;5031873;28;20045;-85
2022/03/14 03:41:27;;;;;;;5.28;4.43;;;;;;;19.37;36.07;102510.47;5033692;28;20037;-84
2022/03/14 03:43:58;;;;;;;5.03;4.53;;;;;;;19.37;36.12;102509.63;5034355;28;20070;-84
2022/03/14 03:46:25;;;;;;;5.20;4.70;;;;;;;19.37;35.93;102509.63;5035005;28;20045;-85
2022/03/14 03:48:53;;;;;;;5.38;4.88;;;;;;;19.37;35.98;102509.63;5033506;28;20049;-84
2022/03/14 03:51:21;;;;;;;5.50;5.00;;;;;;;19.37;35.83;102509.63;5033307;28;20045;-84
2022/03/14 03:54:03;;;;;;;5.47;4.97;;;;;;;19.36;36.07;102507.88;5033131;28;20056;-85
2022/03/14 03:56:34;;;;;;;6.03;4.65;;;;;;;19.36;36.21;102503.34;5033136;28;20060;-85
2022/03/14 03:59:01;;;;;;;5.50;4.53;;;;;;;19.36;36.16;102506.03;5034247;28;20046;-85
2022/03/14 04:01:29;;;;;;;4.75;4.30;;;;;;;19.36;36.26;102514.09;5034590;28;20041;-85
2022/03/14 04:03:58;;;;;;;5.97;4.93;;;;;;;19.36;36.38;102507.88;5033233;28;20057;-85
2022/03/14 04:06:29;;;;;;;4.95;4.43;;;;;;;19.36;36.39;102511.41;5034304;28;20057;-84
2022/03/14 04:09:00;;;;;;;5.13;4.43;;;;;;;19.36;36.21;102514.09;5033154;28;20112;-85
2022/03/14 04:11:28;;;;;;;5.38;4.40;;;;;;;19.35;36.27;102517.75;5033471;28;20076;-85
2022/03/14 04:13:58;;;;;;;6.55;5.40;;;;;;;19.36;36.11;102513.22;5034566;28;20052;-85
2022/03/14 04:16:29;;;;;;;6.13;4.60;;;;;;;19.36;36.45;102527.53;5034023;28;20050;-85
2022/03/14 04:18:58;;;;;;;7.35;5.15;;;;;;;19.36;36.32;102526.66;5048729;28;20045;-84
2022/03/14 04:21:25;;;;;;;5.22;4.60;;;;;;;19.36;36.44;102538.25;5054093;28;20385;-86
2022/03/14 04:23:52;;;;;;;5.32;4.55;;;;;;;19.36;36.22;102537.41;5054404;28;20052;-86
2022/03/14 04:26:20;;;;;;;6.10;5.15;;;;;;;19.35;36.43;102535.69;5051419;28;20408;-88
2022/03/14 04:28:47;;;;;;;5.68;4.72;;;;;;;19.37;36.42;102553.44;5051476;28;20051;-88
2022/03/14 04:31:15;;;;;;;5.00;4.50;;;;;;;19.37;36.25;102541.84;5054034;28;20060;-87
2022/03/14 04:33:42;;;;;;;5.50;4.57;;;;;;;19.35;36.48;102544.59;5053095;28;20045;-87
2022/03/14 04:36:13;;;;;;;5.53;4.53;;;;;;;19.36;36.08;102546.31;5054677;28;20041;-85
2022/03/14 04:38:41;;;;;;;5.88;4.47;;;;;;;19.36;36.29;102549.00;5056350;28;20053;-85
2022/03/14 04:41:09;;;;;;;5.80;4.57;;;;;;;19.36;36.28;102550.84;5057573;28;20072;-85
2022/03/14 04:43:36;;;;;;;6.93;4.82;;;;;;;19.35;36.28;102547.28;5057228;28;20445;-85
2022/03/14 04:46:03;;;;;;;4.60;4.20;;;;;;;19.37;36.42;102556.13;5056886;28;20049;-85
2022/03/14 04:48:31;;;;;;;5.22;4.40;;;;;;;19.36;36.33;102556.19;5057281;28;20045;-85
2022/03/14 04:50:58;;;;;;;5.60;4.93;;;;;;;19.35;36.27;102568.78;5056512;28;20045;-86
2022/03/14 04:53:26;;;;;;;5.72;4.78;;;;;;;19.35;36.17;102573.28;5057219;28;20049;-85
2022/03/14 04:55:53;;;;;;;5.40;4.65;;;;;;;19.36;36.04;102581.22;5057496;28;20477;-84
2022/03/14 04:58:21;;;;;;;5.53;4.82;;;;;;;19.36;36.19;102583.06;5057456;28;20048;-84
2022/03/14 05:00:49;;;;;;;5.82;4.50;;;;;;;19.35;36.33;102584.88;5056061;28;20048;-85
2022/03/14 05:03:18;;;;;;;6.00;5.40;;;;;;;19.35;36.21;102592.06;5055026;28;20052;-85
2022/03/14 05:05:45;;;;;;;5.13;4.07;;;;;;;19.33;36.15;102591.31;5057278;28;20144;-85
2022/03/14 05:08:12;;;;;;;5.45;4.95;;;;;;;19.34;36.08;102595.72;5057537;28;20048;-84
2022/03/14 05:10:40;;;;;;;5.63;5.03;;;;;;;19.34;36.09;102603.78;5057069;28;20525;-87
2022/03/14 05:13:08;;;;;;;5.72;4.65;;;;;;;19.32;36.15;102609.22;5057763;28;20041;-87
2022/03/14 05:15:35;;;;;;;5.32;4.82;;;;;;;19.32;36.03;102611.91;5056476;28;20052;-86
2022/03/14 05:21:57;;;;;;;5.45;4.80;;;;;;;19.31;36.25;102610.19;5036653;28;20045;-86
2022/03/14 05:24:24;;;;;;;5.82;5.22;;;;;;;19.32;36.47;102619.09;5035798;28;20509;-87
2022/03/14 05:26:53;;;;;;;4.93;4.32;;;;;;;19.31;36.41;102620.06;5035099;28;20041;-87
2022/03/14 05:29:21;;;;;;;6.10;4.65;;;;;;;19.31;36.42;102623.63;5036073;28;20046;-86
2022/03/14 05:31:48;;;;;;;5.50;4.90;;;;;;;19.32;36.33;102632.53;5035923;28;20105;-86
2022/03/14 05:34:16;;;;;;;5.40;4.78;;;;;;;19.32;36.21;102633.38;5035380;28;20050;-86
2022/03/14 05:36:44;;;;;;;5.05;4.47;;;;;;;19.33;36.25;102636.97;5036883;28;20056;-84
2022/03/14 05:39:11;;;;;;;5.55;4.80;;;;;;;19.32;36.37;102633.38;5036421;28;20396;-85
2022/03/14 05:41:39;;;;;;;6.70;4.88;;;;;;;19.33;36.24;102639.66;5036604;28;20051;-85
2022/03/14 05:44:06;;;;;;;6.15;4.78;;;;;;;19.34;36.34;102646.75;5036079;28;20420;-86
2022/03/14 05:46:34;;;;;;;5.07;4.47;;;;;;;19.33;36.21;102651.25;5037198;28;20053;-87
2022/03/14 05:49:03;;;;;;;5.18;4.68;;;;;;;19.33;36.22;102663.81;5035535;28;20049;-85
2022/03/14 05:51:34;;;;;;;5.20;4.70;;;;;;;19.34;36.35;102647.63;5036336;28;20045;-87
2022/03/14 05:54:01;;;;;;;5.30;4.78;;;;;;;19.33;36.33;102650.41;5036569;28;20049;-87
2022/03/14 05:56:29;;;;;;;5.80;4.78;;;;;;;19.34;36.29;102655.66;5034916;28;20049;-87
2022/03/14 05:58:57;;;;;;;5.82;5.13;;;;;;;19.34;36.27;102657.50;5036354;28;20539;-87
2022/03/14 06:01:27;;;;;;;5.30;4.47;;;;;;;19.33;36.32;102653.09;5034298;28;20058;-85
2022/03/14 06:03:54;;;;;;;5.65;4.70;;;;;;;19.34;36.17;102654.81;5035597;28;20044;-85
2022/03/14 06:06:22;;;;;;;4.88;4.43;;;;;;;19.33;36.35;102658.47;5036014;28;20076;-86
2022/03/14 06:08:49;;;;;;;5.43;4.70;;;;;;;19.34;36.21;102657.50;5033625;28;20060;-86
2022/03/14 06:11:16;;;;;;;5.75;4.95;;;;;;;19.32;36.50;102668.31;5036215;28;20505;-86
2022/03/14 06:13:43;;;;;;;5.95;5.10;;;;;;;19.33;36.19;102674.56;5018300;28;20505;-85
2022/03/14 06:16:14;;;;;;;5.82;4.95;;;;;;;19.32;36.15;102664.75;5035923;28;20060;-84
2022/03/14 06:18:42;;;;;;;5.45;4.60;;;;;;;19.32;36.66;102675.50;5035336;28;20052;-87
2022/03/14 06:21:09;;;;;;;5.38;4.75;;;;;;;19.31;36.45;102674.63;5036698;28;20412;-86
2022/03/14 06:23:36;;;;;;;5.82;4.80;;;;;;;19.30;36.39;102675.59;5034166;28;20508;-87
2022/03/14 06:26:03;;;;;;;4.63;4.22;;;;;;;19.31;36.36;102680.00;5034678;28;20405;-86
2022/03/14 06:28:31;;;;;;;4.78;4.28;;;;;;;19.31;36.37;102680.00;5035609;28;20064;-86
2022/03/14 06:30:58;;;;;;;7.18;4.93;;;;;;;19.31;36.58;102682.69;5035757;28;20045;-87
2022/03/14 06:33:26;;;;;;;5.22;4.65;;;;;;;19.31;36.39;102679.16;5055950;28;20047;-87
2022/03/14 06:35:53;;;;;;;4.95;4.45;;;;;;;19.30;36.67;102686.34;5056004;28;20049;-87
2022/03/14 06:38:21;;;;;;;6.85;4.50;;;;;;;19.32;36.40;102697.84;5054466;28;20052;-87
2022/03/14 06:40:48;;;;;;;6.43;4.90;;;;;;;19.32;36.46;102703.22;5055202;28;20056;-85
2022/03/14 06:43:21;;;;;;;6.57;4.65;;;;;;;19.33;36.35;102707.66;5055266;28;20056;-87
2022/03/14 06:45:49;;;;;;;5.30;4.45;;;;;;;19.33;36.46;102714.84;5055076;28;20493;-86
2022/03/14 06:48:17;;;;;;;5.60;4.38;;;;;;;19.32;36.22;102708.59;5054752;28;20060;-86
2022/03/14 06:50:44;;;;;;;5.95;4.93;;;;;;;19.32;36.56;102713.97;5054215;28;20041;-85
2022/03/14 06:53:12;;;;;;;5.50;5.00;;;;;;;19.34;36.53;102716.56;5053776;28;20037;-83
2022/03/14 06:55:39;;;;;;;6.10;4.60;;;;;;;19.33;36.40;102721.09;5054700;28;20041;-84
2022/03/14 06:58:07;;;;;;;5.15;4.57;;;;;;;19.34;36.43;102713.88;5052873;28;20052;-84
2022/03/14 07:00:35;;;;;;;6.95;4.45;;;;;;;19.34;36.65;102713.88;5053557;28;20049;-84
2022/03/14 07:03:03;;;;;;;5.40;4.65;;;;;;;19.34;36.17;102711.22;5054692;28;20048;-84
2022/03/14 07:05:31;;;;;;;6.10;4.80;;;;;;;19.35;36.42;102716.47;5053747;28;20084;-84
2022/03/14 07:07:58;;;;;;;5.47;4.78;;;;;;;19.35;36.50;102721.00;5036188;28;20056;-82
2022/03/14 07:10:26;;;;;;;6.20;4.95;;;;;;;19.34;36.25;102713.88;5055106;28;20049;-82
2022/03/14 07:12:54;;;;;;;5.70;5.10;;;;;;;19.34;36.64;102727.31;5054816;28;20060;-82
2022/03/14 07:15:23;;;;;;;7.05;5.13;;;;;;;19.32;37.32;102722.00;5054909;28;20056;-82
2022/03/14 07:17:50;;;;;;;5.95;5.25;;;;;;;19.32;37.11;102722.00;5054229;28;20041;-82
2022/03/14 07:20:19;;;;;;;6.55;5.07;;;;;;;19.31;36.98;102727.47;5045889;28;20408;-82
2022/03/14 07:22:48;;;;;;;6.50;4.70;;;;;;;19.29;36.82;102715.97;5036594;28;20366;-82
2022/03/14 07:25:28;;;;;;;7.15;4.68;;;;;;;19.31;36.71;102725.66;5033585;28;20053;-82
2022/03/14 07:27:59;;;;;;;6.63;5.05;;;;;;;19.31;36.72;102720.28;5034098;28;20057;-86
2022/03/14 07:30:26;;;;;;;5.82;5.13;;;;;;;19.32;36.81;102723.84;5035604;28;20045;-86
2022/03/14 07:32:54;;;;;;;5.85;5.25;;;;;;;19.32;36.69;102727.38;5043474;28;20048;-82
2022/03/14 07:35:23;;;;;;;6.05;4.70;;;;;;;19.33;36.68;102726.47;5054252;28;20053;-82
2022/03/14 07:37:51;;;;;;;6.40;5.75;;;;;;;19.33;36.78;102731.81;5054480;28;20053;-82
2022/03/14 07:40:19;;;;;;;6.80;5.32;;;;;;;19.34;36.34;102738.06;5053428;28;20400;-82
2022/03/14 07:42:53;;;;;;;5.22;4.72;;;;;;;19.34;36.50;102740.75;5055488;28;20052;-81
2022/03/14 07:45:21;;;;;;;5.10;4.60;;;;;;;19.36;36.91;102744.19;5053898;28;20484;-83
2022/03/14 07:47:50;;;;;;;6.28;4.82;;;;;;;19.36;37.49;102755.81;5055655;28;20511;-82
2022/03/14 07:50:18;;;;;;;5.30;4.72;;;;;;;19.36;37.19;102753.13;5061589;28;20048;-82
2022/03/14 07:52:49;;;;;;;6.70;5.22;;;;;;;19.35;37.10;102763.97;5056630;28;20041;-82
2022/03/14 07:55:17;;;;;;;5.95;4.65;;;;;;;19.34;36.92;102765.78;5052804;28;20056;-82
2022/03/14 07:57:46;;;;;;;5.78;4.82;;;;;;;19.34;36.74;102776.53;5053944;28;20056;-83
2022/03/14 08:00:18;;;;;;;7.43;5.55;;;;;;;19.33;37.52;102780.16;5053176;28;20056;-83
2022/03/14 08:02:47;;;;;;;7.93;5.53;;;;;;;19.33;37.35;102780.16;5053131;28;20392;-83
2022/03/14 08:05:23;;;;;;;6.13;5.22;;;;;;;19.34;37.85;102794.47;5053290;28;20378;-82
2022/03/14 08:07:52;;;;;;;6.43;5.45;;;;;;;19.33;38.31;102793.59;5053002;28;20485;-83
2022/03/14 08:10:22;;;;;;;10.60;6.78;;;;;;;19.30;37.35;102784.84;5053476;28;20056;-80
2022/03/14 08:12:55;;;;;;;8.30;6.95;;;;;;;19.27;37.46;102792.09;5057530;28;20052;-82
2022/03/14 08:15:28;;;;;;;8.03;7.07;;;;;;;19.24;37.30;102788.72;5056904;28;20064;-82
2022/03/14 08:17:59;;;;;;;9.45;8.43;;;;;;;19.20;36.73;102795.19;5058311;28;20424;-82
2022/03/14 08:20:29;;;;;;;8.30;7.18;;;;;;;19.17;37.45;102801.63;5055063;28;20057;-82
2022/03/14 08:23:02;;;;;;;10.98;9.75;;;;;;;19.13;36.54;102805.41;5038613;28;20070;-82
2022/03/14 08:25:32;;;;;;;10.38;9.40;;;;;;;19.11;36.00;102806.44;5037386;28;20050;-82
2022/03/14 08:27:59;;;;;;;11.20;10.10;;;;;;;19.07;36.20;102811.09;5036828;28;20049;-82
2022/03/14 08:30:27;;;;;;;9.15;8.25;;;;;;;19.04;36.32;102813.97;5036577;28;20049;-83
2022/03/14 08:32:56;;;;;;;9.75;8.77;;;;;;;19.04;36.38;102827.41;5056467;28;20041;-82
2022/03/14 08:35:25;;;;;;;11.45;8.50;;;;;;;19.02;36.34;102829.28;5055874;28;20049;-82
2022/03/14 08:37:53;;;;;;;8.98;8.18;;;;;;;19.01;36.45;102838.28;5056893;28;20045;-83
2022/03/14 08:40:24;;;;;;;8.95;8.05;;;;;;;19.00;36.87;102833.88;5056519;28;20060;-82
2022/03/14 08:42:53;;;;;;;9.68;8.18;;;;;;;18.99;36.64;102832.97;5056821;28;20037;-83
2022/03/14 08:45:22;;;;;;;10.75;9.68;;;;;;;18.99;36.18;102834.81;5056835;28;20041;-82
2022/03/14 08:47:50;;;;;;;9.20;8.30;;;;;;;18.98;36.67;102851.88;5056527;28;20052;-83
2022/03/14 08:50:17;;;;;;;9.40;7.85;;;;;;;18.98;37.14;102850.03;5054769;28;20052;-83
2022/03/14 08:52:48;;;;;;;8.27;7.35;;;;;;;19.00;36.93;102836.56;5056885;28;20056;-83
2022/03/14 08:55:15;;;;;;;11.23;9.25;;;;;;;19.00;35.94;102837.44;5056046;28;20495;-83
2022/03/14 08:57:43;;;;;;;9.75;8.68;;;;;;;18.98;36.51;102833.06;5056778;28;20056;-83
2022/03/14 09:00:12;;;;;;;9.88;8.63;;;;;;;18.99;36.51;102829.44;5056859;28;20060;-81
2022/03/14 09:02:43;;;;;;;9.20;8.27;;;;;;;18.99;35.91;102826.75;5057137;28;20464;-83
2022/03/14 09:05:12;;;;;;;9.40;8.30;;;;;;;18.99;36.08;102826.75;5055778;28;20049;-82
2022/03/14 09:07:39;;;;;;;10.27;9.30;;;;;;;18.99;35.63;102835.66;5056746;28;20045;-83
2022/03/14 09:10:09;;;;;;;9.40;8.35;;;;;;;18.98;36.34;102823.19;5055890;28;20057;-83
2022/03/14 09:12:37;;;;;;;9.50;8.60;;;;;;;19.00;36.32;102824.00;5056183;28;20464;-82
2022/03/14 09:15:09;;;;;;;10.77;8.75;;;;;;;19.02;36.43;102823.91;5056007;28;20041;-82
2022/03/14 09:17:59;;;;;;;9.48;8.23;;;;;;;19.03;36.46;102828.31;5054974;28;20075;-82
2022/03/14 09:20:28;;;;;;;10.40;9.45;;;;;;;19.05;36.17;102833.63;5054582;28;20060;-83
2022/03/14 09:22:56;;;;;;;9.88;8.73;;;;;;;19.06;36.41;102835.34;5043955;28;20061;-82
2022/03/14 09:25:24;;;;;;;10.02;8.48;;;;;;;19.07;36.36;102847.81;5035787;28;20045;-82
2022/03/14 09:27:52;;;;;;;8.45;7.65;;;;;;;19.08;36.25;102846.88;5034634;28;20053;-83
2022/03/14 09:30:20;;;;;;;10.65;9.55;;;;;;;19.09;36.14;102841.44;5034672;28;20049;-82
2022/03/14 09:32:48;;;;;;;11.15;7.85;;;;;;;19.10;36.41;102844.97;5035849;28;20053;-83
2022/03/14 09:35:15;;;;;;;10.30;7.43;;;;;;;19.11;36.89;102849.41;5036179;28;20037;-84
2022/03/14 09:37:44;;;;;;;8.38;7.32;;;;;;;19.13;36.35;102848.38;5036835;28;20060;-82
2022/03/14 09:40:18;;;;;;;10.10;8.30;;;;;;;19.14;36.09;102844.72;5036520;28;20049;-84
2022/03/14 09:42:52;;;;;;;10.40;8.35;;;;;;;19.18;36.27;102848.13;5036617;28;20056;-82
2022/03/14 09:45:20;;;;;;;8.65;7.80;;;;;;;19.17;36.72;102836.53;5036438;28;20042;-82
2022/03/14 09:47:55;;;;;;;11.40;6.80;;;;;;;19.16;36.70;102841.94;5036515;28;20049;-83
2022/03/14 09:50:37;;;;;;;7.18;6.28;;;;;;;19.16;36.54;102844.63;5035051;28;20045;-81
2022/03/14 09:53:08;;;;;;;8.57;5.70;;;;;;;19.16;36.90;102852.69;5036120;28;20057;-82
2022/03/14 09:55:41;;;;;;;5.80;5.22;;;;;;;19.16;37.03;102850.00;5037990;28;20048;-82
2022/03/14 09:58:11;;;;;;;8.15;5.70;;;;;;;19.17;37.15;102846.41;5055384;28;20053;-82
2022/03/14 10:00:39;;;;;;;6.45;4.93;;;;;;;19.17;36.96;102852.63;5056071;28;20049;-81
2022/03/14 10:03:13;;;;;;;8.20;5.32;;;;;;;19.18;37.17;102861.56;5055634;28;20405;-82
2022/03/14 10:05:42;;;;;;;5.50;4.85;;;;;;;19.18;37.10;102867.78;5055838;28;20045;-83
2022/03/14 10:08:10;;;;;;;5.93;5.00;;;;;;;19.19;37.25;102857.91;5054703;28;20508;-82
2022/03/14 10:10:39;;;;;;;7.03;5.10;;;;;;;19.21;37.21;102842.59;5055106;28;20045;-84
2022/03/14 10:13:16;;;;;;;7.63;4.90;;;;;;;19.21;36.87;102838.09;5056086;28;20393;-81
2022/03/14 10:15:44;;;;;;;5.55;4.78;;;;;;;19.21;37.24;102837.22;5055991;28;20048;-81
2022/03/14 10:18:17;;;;;;;5.55;4.65;;;;;;;19.22;37.24;102847.88;5055529;28;20400;-82
2022/03/14 10:20:55;;;;;;;;;;;;;;;19.22;37.48;102839.81;5054844;28;20045;-81
2022/03/14 10:23:29;;;;;;;6.13;4.78;;;;;;;19.23;37.35;102844.22;5040299;28;19928;-81
2022/03/14 10:25:58;;;;;;;7.20;5.35;;;;;;;19.23;37.29;102843.38;5054100;28;20041;-81
2022/03/14 10:28:38;;;;;;;6.30;4.50;;;;;;;19.22;37.36;102837.13;5053096;28;20080;-82
2022/03/14 10:31:34;;;;;;;6.25;5.05;;;;;;;19.24;37.46;102842.41;5054455;28;20049;-84
2022/03/14 10:34:10;;;;;;;8.10;4.35;;;;;;;19.24;37.38;102832.56;5054656;28;20040;-83
2022/03/14 10:36:46;;;;;;;5.68;4.80;;;;;;;19.25;37.61;102836.13;5055193;28;20392;-81
2022/03/14 10:39:18;;;;;;;5.43;4.05;;;;;;;19.25;38.67;102828.91;5055157;28;20049;-84
2022/03/14 10:42:02;;;;;;;5.47;4.18;;;;;;;19.26;39.60;102829.78;5056113;28;20388;-82
2022/03/14 10:44:51;;;;;;;7.07;4.88;;;;;;;19.26;40.29;102829.78;5053356;28;20049;-82
2022/03/14 10:47:19;;;;;;;6.85;5.65;;;;;;;19.25;39.70;102834.28;5055516;28;20049;-81
2022/03/14 10:49:49;;;;;;;6.22;5.15;;;;;;;19.25;39.67;102836.13;5055054;28;20396;-84
2022/03/14 10:52:20;;;;;;;7.07;6.45;;;;;;;19.25;38.59;102834.28;5053185;28;20460;-81
2022/03/14 10:54:49;;;;;;;6.88;6.22;;;;;;;19.25;38.73;102836.13;5054871;28;20049;-83
2022/03/14 10:57:18;;;;;;;8.38;5.95;;;;;;;19.27;37.80;102834.19;5054349;28;20049;-83
2022/03/14 10:59:48;;;;;;;6.53;5.90;;;;;;;19.27;38.54;102840.44;5053741;28;20064;-82
2022/03/14 11:02:20;;;;;;;7.22;6.50;;;;;;;19.25;38.28;102815.50;5054350;28;20056;-82
2022/03/14 11:04:50;;;;;;;9.55;6.03;;;;;;;19.25;39.67;102820.00;5053796;28;20052;-83
2022/03/14 11:07:20;;;;;;;5.55;5.05;;;;;;;19.24;40.90;102824.50;5036185;28;20052;-83
2022/03/14 11:09:50;;;;;;;8.27;5.72;;;;;;;19.24;40.73;102821.81;5053655;28;20049;-83
2022/03/14 11:12:22;;;;;;;7.72;5.25;;;;;;;19.23;39.78;102832.63;5053762;28;20049;-83
2022/03/14 11:14:55;;;;;;;7.82;5.85;;;;;;;19.22;40.33;102831.75;5054229;28;20044;-82
2022/03/14 11:17:30;;;;;;;7.40;5.90;;;;;;;19.20;39.64;102822.94;5053865;28;20049;-82
2022/03/14 11:20:15;;;;;;;6.97;6.38;;;;;;;19.20;39.48;102824.72;5052161;28;20297;-83
2022/03/14 11:22:43;;;;;;;6.63;5.43;;;;;;;19.20;39.87;102822.03;5052591;28;20049;-81
2022/03/14 11:25:11;;;;;;;7.45;5.57;;;;;;;19.20;39.60;102816.66;5034854;28;20049;-82
2022/03/14 11:27:42;;;;;;;7.97;5.72;;;;;;;19.20;39.46;102806.84;5034516;28;20405;-83
2022/03/14 11:30:13;;;;;;;6.53;5.82;;;;;;;19.20;39.19;102806.84;5033376;28;20049;-82
2022/03/14 11:32:44;;;;;;;6.95;5.95;;;;;;;19.21;38.95;102794.28;5032393;28;20060;-82
2022/03/14 11:35:12;;;;;;;6.38;5.22;;;;;;;19.20;39.95;102785.34;5037329;28;20041;-80
2022/03/14 11:37:42;;;;;;;5.97;5.22;;;;;;;19.20;41.07;102774.59;5053055;28;20045;-82